ENCN

Kristiansand Airport

Kjevik, Norway
METAR ENCN 170020Z AUTO 05003KT 1300 R03/P2000N R21/P2000N DZ VV004 11/11 Q1015 REDZ
Observed Flight Rules
Oct-17 @ 00:20 UTC (36 minutes ago) Instrument Flight Rules
Wind Visibility Clouds Conditions
50° at 3 knots 1,304 meters
  • Vertical visibility at 400' AGL
  • Drizzle
Temperatures Readings
Current 11°C / 52°F
Dewpoint 11°C / 52°F
Humidity 100%
Altimeter 29.97" Hg
Pressure 1015 hPa
Elevation 17
METAR ENCN 170020Z AUTO 05003KT 1300 R03/P2000N R21/P2000N DZ VV004 11/11 Q1015 REDZ
Observed Flight Rules
Oct-17 @ 00:20 UTC
(36 minutes ago)
LIFR
Wind Visibility
50° at 3 knots 1,304 meters
Clouds
  • Vertical visibility at 400' AGL
Conditions
  • Drizzle
Temperature Dewpoint
11°C / 52°F 11°C / 52°F
Humidity Altimeter Pressure
100% 29.97" Hg 1015 hPa